BAW445 EHAM-EGLL
Flight info
| Callsign | BAW445 |
|---|---|
| Flight time | N/A |
| Altitude | 24000 |
| Route | IDRID L980 LOGAN |
| Aircraft | A320/M-SDE3FGHIRWY/LB1 |
Departure
| Time | 2026-04-29 12:55 |
|---|---|
| Airport | Amsterdam Airport Schiphol (EHAM) |
Arrival
| Time | N/A |
|---|---|
| Airport | London Heathrow Airport (EGLL) |
| Time | Latitude | Longitude | Altitude | Speed | Heading |
|---|---|---|---|---|---|
| 2026-04-29 12:06 | 52.30713 | 4.77156 | -1 ft | 0 kts | 3° |
| 2026-04-29 12:36 | 52.30712 | 4.77156 | 26 ft | 1 kts | 3° |
| 2026-04-29 12:36 | 52.30693 | 4.77154 | 10 ft | 1 kts | 21° |
| 2026-04-29 12:37 | 52.30675 | 4.77143 | -1 ft | 4 kts | 338° |
| 2026-04-29 12:37 | 52.30660 | 4.77165 | -1 ft | 3 kts | 301° |
| 2026-04-29 12:37 | 52.30657 | 4.77172 | -1 ft | 0 kts | 302° |
| 2026-04-29 12:40 | 52.30659 | 4.77166 | -1 ft | 2 kts | 294° |
| 2026-04-29 12:40 | 52.30660 | 4.77134 | -1 ft | 4 kts | 266° |
| 2026-04-29 12:41 | 52.30649 | 4.77076 | -1 ft | 7 kts | 238° |
| 2026-04-29 12:41 | 52.30604 | 4.77038 | -1 ft | 9 kts | 177° |
| 2026-04-29 12:41 | 52.30541 | 4.77089 | -1 ft | 11 kts | 160° |
| 2026-04-29 12:41 | 52.30485 | 4.77014 | -1 ft | 13 kts | 238° |
| 2026-04-29 12:42 | 52.30434 | 4.76883 | -1 ft | 15 kts | 237° |
| 2026-04-29 12:42 | 52.30375 | 4.76731 | -1 ft | 17 kts | 238° |
| 2026-04-29 12:42 | 52.30309 | 4.76559 | -1 ft | 19 kts | 238° |
| 2026-04-29 12:42 | 52.30236 | 4.76368 | -1 ft | 21 kts | 238° |
| 2026-04-29 12:43 | 52.30157 | 4.76159 | -1 ft | 22 kts | 233° |
| 2026-04-29 12:43 | 52.30084 | 4.75968 | -1 ft | 20 kts | 237° |
| 2026-04-29 12:43 | 52.30009 | 4.75777 | -1 ft | 20 kts | 237° |
| 2026-04-29 12:43 | 52.29947 | 4.75619 | -1 ft | 17 kts | 239° |
| 2026-04-29 12:44 | 52.29883 | 4.75446 | -1 ft | 19 kts | 239° |
| 2026-04-29 12:44 | 52.29832 | 4.75249 | -1 ft | 20 kts | 274° |
| 2026-04-29 12:44 | 52.29906 | 4.75074 | -1 ft | 19 kts | 306° |
| 2026-04-29 12:44 | 52.29993 | 4.74898 | -1 ft | 21 kts | 317° |
| 2026-04-29 12:45 | 52.30097 | 4.74723 | 4 ft | 21 kts | 312° |
| 2026-04-29 12:45 | 52.30187 | 4.74556 | 10 ft | 20 kts | 311° |
| 2026-04-29 12:45 | 52.30283 | 4.74379 | 9 ft | 21 kts | 310° |
| 2026-04-29 12:45 | 52.30383 | 4.74209 | -1 ft | 20 kts | 335° |
| 2026-04-29 12:46 | 52.30528 | 4.74203 | -1 ft | 22 kts | 4° |
| 2026-04-29 12:46 | 52.30690 | 4.74216 | -1 ft | 24 kts | 2° |
| 2026-04-29 12:46 | 52.30847 | 4.74232 | -1 ft | 19 kts | 5° |
| 2026-04-29 12:46 | 52.30985 | 4.74249 | -1 ft | 21 kts | 3° |
| 2026-04-29 12:47 | 52.31136 | 4.74261 | -1 ft | 23 kts | 4° |
| 2026-04-29 12:47 | 52.31283 | 4.74276 | -1 ft | 18 kts | 2° |
| 2026-04-29 12:47 | 52.31415 | 4.74287 | -1 ft | 20 kts | 3° |
| 2026-04-29 12:47 | 52.31561 | 4.74301 | -1 ft | 22 kts | 4° |
| 2026-04-29 12:48 | 52.31721 | 4.74316 | -1 ft | 24 kts | 3° |
| 2026-04-29 12:48 | 52.31887 | 4.74331 | -1 ft | 23 kts | 3° |
| 2026-04-29 12:48 | 52.32012 | 4.74313 | -1 ft | 14 kts | 329° |
| 2026-04-29 12:48 | 52.32033 | 4.74155 | -1 ft | 16 kts | 272° |
| 2026-04-29 12:49 | 52.32040 | 4.73963 | -2 ft | 18 kts | 273° |
| 2026-04-29 12:49 | 52.32047 | 4.73753 | -1 ft | 19 kts | 273° |
| 2026-04-29 12:49 | 52.32056 | 4.73521 | -1 ft | 22 kts | 275° |
| 2026-04-29 12:49 | 52.32127 | 4.73302 | -1 ft | 23 kts | 317° |
| 2026-04-29 12:50 | 52.32254 | 4.73124 | -1 ft | 23 kts | 320° |
| 2026-04-29 12:50 | 52.32364 | 4.72969 | -1 ft | 22 kts | 319° |
| 2026-04-29 12:50 | 52.32488 | 4.72800 | -1 ft | 23 kts | 320° |
| 2026-04-29 12:50 | 52.32601 | 4.72638 | -1 ft | 23 kts | 319° |
| 2026-04-29 12:51 | 52.32705 | 4.72472 | -1 ft | 20 kts | 311° |
| 2026-04-29 12:51 | 52.32796 | 4.72304 | -1 ft | 20 kts | 311° |
| 2026-04-29 12:51 | 52.32893 | 4.72129 | -1 ft | 22 kts | 312° |
| 2026-04-29 12:51 | 52.32997 | 4.71933 | -1 ft | 24 kts | 310° |
| 2026-04-29 12:52 | 52.33101 | 4.71740 | -1 ft | 22 kts | 311° |
| 2026-04-29 12:52 | 52.33139 | 4.71528 | -1 ft | 19 kts | 253° |
| 2026-04-29 12:52 | 52.33120 | 4.71447 | -1 ft | 6 kts | 304° |
| 2026-04-29 12:52 | 52.33154 | 4.71385 | -1 ft | 8 kts | 313° |
| 2026-04-29 12:53 | 52.33199 | 4.71303 | -1 ft | 11 kts | 312° |
| 2026-04-29 12:53 | 52.33254 | 4.71202 | -1 ft | 13 kts | 311° |
| 2026-04-29 12:53 | 52.33321 | 4.71076 | -2 ft | 16 kts | 311° |
| 2026-04-29 12:53 | 52.33403 | 4.70936 | -2 ft | 16 kts | 336° |
| 2026-04-29 12:54 | 52.33504 | 4.70952 | -2 ft | 15 kts | 3° |
| 2026-04-29 12:54 | 52.33724 | 4.70974 | 0 ft | 64 kts | 3° |
| 2026-04-29 12:54 | 52.34371 | 4.71032 | -4 ft | 121 kts | 4° |
| 2026-04-29 12:54 | 52.35355 | 4.71150 | 139 ft | 152 kts | 8° |
| 2026-04-29 12:55 | 52.36396 | 4.71248 | 865 ft | 149 kts | 11° |
| 2026-04-29 12:55 | 52.37449 | 4.71359 | 1419 ft | 160 kts | 11° |
| 2026-04-29 12:55 | 52.38644 | 4.71485 | 1744 ft | 183 kts | 11° |
| 2026-04-29 12:55 | 52.39994 | 4.71614 | 2052 ft | 204 kts | 9° |
| 2026-04-29 12:56 | 52.41482 | 4.71747 | 2458 ft | 226 kts | 8° |
| 2026-04-29 12:56 | 52.43109 | 4.71347 | 2962 ft | 257 kts | 342° |
| 2026-04-29 12:56 | 52.44616 | 4.69510 | 3648 ft | 281 kts | 317° |
| 2026-04-29 12:56 | 52.45780 | 4.66859 | 4536 ft | 292 kts | 300° |
| 2026-04-29 12:57 | 52.46489 | 4.63711 | 5495 ft | 297 kts | 283° |
| 2026-04-29 12:57 | 52.46691 | 4.60297 | 6218 ft | 302 kts | 270° |
| 2026-04-29 12:57 | 52.46369 | 4.56936 | 7205 ft | 299 kts | 249° |
| 2026-04-29 12:57 | 52.45430 | 4.53930 | 8120 ft | 299 kts | 238° |
| 2026-04-29 12:58 | 52.44364 | 4.50969 | 9010 ft | 302 kts | 237° |
| 2026-04-29 12:58 | 52.43276 | 4.47987 | 9867 ft | 307 kts | 238° |
| 2026-04-29 12:58 | 52.42166 | 4.44959 | 10601 ft | 314 kts | 238° |
| 2026-04-29 12:58 | 52.40996 | 4.41766 | 10873 ft | 338 kts | 238° |
| 2026-04-29 12:59 | 52.39754 | 4.38379 | 11254 ft | 353 kts | 238° |
| 2026-04-29 12:59 | 52.38473 | 4.34879 | 11869 ft | 360 kts | 238° |
| 2026-04-29 12:59 | 52.37193 | 4.31384 | 12547 ft | 365 kts | 238° |
| 2026-04-29 12:59 | 52.35884 | 4.27800 | 13261 ft | 369 kts | 238° |
| 2026-04-29 13:00 | 52.34559 | 4.24177 | 13993 ft | 372 kts | 238° |
| 2026-04-29 13:00 | 52.33224 | 4.20533 | 14605 ft | 376 kts | 238° |
| 2026-04-29 13:00 | 52.31866 | 4.16841 | 15198 ft | 380 kts | 238° |
| 2026-04-29 13:00 | 52.30329 | 4.13302 | 15813 ft | 382 kts | 231° |
| 2026-04-29 13:01 | 52.28711 | 4.09898 | 16428 ft | 385 kts | 231° |
| 2026-04-29 13:01 | 52.27056 | 4.06436 | 17017 ft | 389 kts | 231° |
| 2026-04-29 13:01 | 52.25379 | 4.02934 | 17628 ft | 392 kts | 232° |
| 2026-04-29 13:01 | 52.23692 | 3.99415 | 18261 ft | 394 kts | 232° |
| 2026-04-29 13:02 | 52.21990 | 3.95873 | 18823 ft | 398 kts | 231° |
| 2026-04-29 13:02 | 52.20273 | 3.92301 | 19326 ft | 402 kts | 232° |
| 2026-04-29 13:02 | 52.18539 | 3.88693 | 19887 ft | 405 kts | 231° |
| 2026-04-29 13:02 | 52.16794 | 3.85066 | 20435 ft | 408 kts | 231° |
| 2026-04-29 13:03 | 52.15033 | 3.81415 | 20956 ft | 411 kts | 231° |
| 2026-04-29 13:03 | 52.13263 | 3.77743 | 21470 ft | 414 kts | 231° |
| 2026-04-29 13:03 | 52.11498 | 3.74088 | 21948 ft | 417 kts | 231° |
| 2026-04-29 13:03 | 52.09693 | 3.70354 | 22440 ft | 420 kts | 231° |
| 2026-04-29 13:04 | 52.07879 | 3.66615 | 22922 ft | 423 kts | 230° |
| 2026-04-29 13:04 | 52.06047 | 3.62839 | 23399 ft | 426 kts | 230° |
| 2026-04-29 13:04 | 52.04200 | 3.59039 | 23874 ft | 430 kts | 230° |
| 2026-04-29 13:04 | 52.02335 | 3.55216 | 24216 ft | 432 kts | 230° |
| 2026-04-29 13:05 | 52.00459 | 3.51376 | 24316 ft | 431 kts | 230° |
| 2026-04-29 13:05 | 51.98609 | 3.47551 | 24349 ft | 429 kts | 231° |
| 2026-04-29 13:05 | 51.96825 | 3.43696 | 24336 ft | 427 kts | 232° |
| 2026-04-29 13:05 | 51.95105 | 3.39863 | 24333 ft | 425 kts | 233° |
| 2026-04-29 13:06 | 51.93365 | 3.35932 | 24321 ft | 425 kts | 233° |
| 2026-04-29 13:06 | 51.91660 | 3.32087 | 24321 ft | 424 kts | 233° |
| 2026-04-29 13:06 | 51.89931 | 3.28212 | 24327 ft | 424 kts | 232° |
| 2026-04-29 13:06 | 51.88192 | 3.24357 | 24329 ft | 424 kts | 232° |
| 2026-04-29 13:07 | 51.86555 | 3.20404 | 24329 ft | 425 kts | 240° |
| 2026-04-29 13:07 | 51.85323 | 3.16049 | 24318 ft | 425 kts | 250° |
| 2026-04-29 13:07 | 51.84573 | 3.11435 | 24310 ft | 425 kts | 261° |
| 2026-04-29 13:07 | 51.84233 | 3.06662 | 24311 ft | 420 kts | 264° |
| 2026-04-29 13:08 | 51.83942 | 3.02033 | 24314 ft | 410 kts | 264° |
| 2026-04-29 13:08 | 51.83649 | 2.97458 | 24313 ft | 408 kts | 264° |
| 2026-04-29 13:08 | 51.83350 | 2.92897 | 24314 ft | 408 kts | 264° |
| 2026-04-29 13:08 | 51.83045 | 2.88329 | 24318 ft | 410 kts | 264° |
| 2026-04-29 13:09 | 51.82739 | 2.83744 | 24317 ft | 411 kts | 263° |
| 2026-04-29 13:09 | 51.82435 | 2.79216 | 24321 ft | 409 kts | 263° |
| 2026-04-29 13:09 | 51.82125 | 2.74635 | 24315 ft | 410 kts | 263° |
| 2026-04-29 13:09 | 51.81811 | 2.70038 | 24318 ft | 412 kts | 263° |
| 2026-04-29 13:10 | 51.81495 | 2.65446 | 24321 ft | 410 kts | 263° |
| 2026-04-29 13:10 | 51.81177 | 2.60854 | 24317 ft | 409 kts | 263° |
| 2026-04-29 13:10 | 51.80860 | 2.56291 | 24311 ft | 409 kts | 263° |
| 2026-04-29 13:10 | 51.80541 | 2.51714 | 24313 ft | 410 kts | 263° |
| 2026-04-29 13:11 | 51.80222 | 2.47127 | 24308 ft | 411 kts | 263° |
| 2026-04-29 13:11 | 51.79905 | 2.42573 | 24314 ft | 411 kts | 263° |
| 2026-04-29 13:11 | 51.79586 | 2.38013 | 24321 ft | 401 kts | 262° |
| 2026-04-29 13:11 | 51.79279 | 2.33633 | 24315 ft | 387 kts | 262° |
| 2026-04-29 13:12 | 51.78967 | 2.29296 | 24325 ft | 386 kts | 262° |
| 2026-04-29 13:12 | 51.78654 | 2.24991 | 24323 ft | 385 kts | 262° |
| 2026-04-29 13:12 | 51.78349 | 2.20724 | 24324 ft | 382 kts | 262° |
| 2026-04-29 13:12 | 51.78076 | 2.16443 | 24323 ft | 383 kts | 263° |
| 2026-04-29 13:13 | 51.77833 | 2.12214 | 24311 ft | 384 kts | 263° |
| 2026-04-29 13:13 | 51.77594 | 2.07915 | 24318 ft | 384 kts | 264° |
| 2026-04-29 13:13 | 51.77356 | 2.03671 | 24314 ft | 371 kts | 263° |
| 2026-04-29 13:13 | 51.77126 | 1.99636 | 24305 ft | 350 kts | 263° |
| 2026-04-29 13:14 | 51.76898 | 1.95758 | 24313 ft | 345 kts | 263° |
| 2026-04-29 13:14 | 51.76666 | 1.91917 | 24324 ft | 344 kts | 262° |
| 2026-04-29 13:14 | 51.76430 | 1.88070 | 24320 ft | 344 kts | 262° |
| 2026-04-29 13:14 | 51.76194 | 1.84239 | 24319 ft | 343 kts | 262° |
| 2026-04-29 13:15 | 51.76038 | 1.81703 | 24315 ft | 342 kts | 262° |
| 2026-04-29 13:15 | 51.75803 | 1.77872 | 24319 ft | 341 kts | 261° |
| 2026-04-29 13:15 | 51.75568 | 1.74061 | 24329 ft | 342 kts | 262° |
| 2026-04-29 13:15 | 51.75250 | 1.68985 | 24323 ft | 344 kts | 261° |
| 2026-04-29 13:16 | 51.75087 | 1.66395 | 24320 ft | 343 kts | 262° |
| 2026-04-29 13:16 | 51.74846 | 1.62565 | 24319 ft | 343 kts | 262° |
| 2026-04-29 13:16 | 51.74605 | 1.58738 | 24329 ft | 343 kts | 261° |
| 2026-04-29 13:16 | 51.74361 | 1.54914 | 24335 ft | 343 kts | 261° |
| 2026-04-29 13:17 | 51.74117 | 1.51084 | 24335 ft | 343 kts | 262° |
| 2026-04-29 13:17 | 51.73874 | 1.47294 | 24331 ft | 344 kts | 261° |
| 2026-04-29 13:17 | 51.73627 | 1.43459 | 24341 ft | 344 kts | 261° |
| 2026-04-29 13:17 | 51.73373 | 1.39592 | 23931 ft | 352 kts | 261° |
| 2026-04-29 13:18 | 51.73113 | 1.35640 | 23545 ft | 350 kts | 261° |
| 2026-04-29 13:18 | 51.72860 | 1.31781 | 23388 ft | 342 kts | 261° |
| 2026-04-29 13:18 | 51.72612 | 1.27985 | 23103 ft | 339 kts | 261° |
| 2026-04-29 13:18 | 51.72362 | 1.24190 | 22782 ft | 338 kts | 261° |
| 2026-04-29 13:19 | 51.72116 | 1.20484 | 22478 ft | 336 kts | 261° |
| 2026-04-29 13:19 | 51.71867 | 1.16756 | 22194 ft | 333 kts | 261° |
| 2026-04-29 13:19 | 51.71618 | 1.13059 | 21881 ft | 332 kts | 261° |
| 2026-04-29 13:19 | 51.71362 | 1.09307 | 21315 ft | 340 kts | 261° |
| 2026-04-29 13:20 | 51.71097 | 1.05455 | 20710 ft | 349 kts | 262° |
| 2026-04-29 13:20 | 51.70826 | 1.01528 | 20107 ft | 353 kts | 262° |
| 2026-04-29 13:20 | 51.70558 | 0.97629 | 19564 ft | 348 kts | 263° |
| 2026-04-29 13:20 | 51.70296 | 0.93752 | 19048 ft | 344 kts | 262° |
| 2026-04-29 13:21 | 51.70040 | 0.89982 | 18529 ft | 341 kts | 263° |
| 2026-04-29 13:21 | 51.69780 | 0.86193 | 18023 ft | 336 kts | 262° |
| 2026-04-29 13:21 | 51.69525 | 0.82522 | 17753 ft | 323 kts | 262° |
| 2026-04-29 13:21 | 51.69273 | 0.78965 | 17316 ft | 318 kts | 262° |
| 2026-04-29 13:22 | 51.69023 | 0.75444 | 16863 ft | 314 kts | 262° |
| 2026-04-29 13:22 | 51.68775 | 0.71961 | 16384 ft | 310 kts | 262° |
| 2026-04-29 13:22 | 51.68530 | 0.68511 | 15885 ft | 309 kts | 261° |
| 2026-04-29 13:22 | 51.68291 | 0.65123 | 15406 ft | 307 kts | 261° |
| 2026-04-29 13:23 | 51.68049 | 0.61715 | 14951 ft | 305 kts | 261° |
| 2026-04-29 13:23 | 51.67806 | 0.58338 | 14526 ft | 301 kts | 261° |
| 2026-04-29 13:23 | 51.67561 | 0.54984 | 14070 ft | 299 kts | 260° |
| 2026-04-29 13:23 | 51.67326 | 0.51782 | 13623 ft | 295 kts | 261° |
| 2026-04-29 13:24 | 51.67087 | 0.48510 | 13105 ft | 294 kts | 260° |
| 2026-04-29 13:24 | 51.66850 | 0.45252 | 12650 ft | 290 kts | 260° |
| 2026-04-29 13:24 | 51.66614 | 0.42034 | 12142 ft | 290 kts | 259° |
| 2026-04-29 13:24 | 51.66378 | 0.38824 | 11699 ft | 287 kts | 259° |
| 2026-04-29 13:25 | 51.66145 | 0.35678 | 11264 ft | 284 kts | 259° |
| 2026-04-29 13:25 | 51.65676 | 0.29397 | 10407 ft | 279 kts | 260° |
| 2026-04-29 13:25 | 51.65444 | 0.26331 | 10291 ft | 278 kts | 260° |
| 2026-04-29 13:26 | 51.65204 | 0.23199 | 10300 ft | 280 kts | 260° |
| 2026-04-29 13:26 | 51.64968 | 0.20084 | 10298 ft | 281 kts | 259° |
| 2026-04-29 13:26 | 51.64729 | 0.16954 | 10297 ft | 283 kts | 259° |
| 2026-04-29 13:26 | 51.64500 | 0.13864 | 10295 ft | 279 kts | 260° |
| 2026-04-29 13:27 | 51.64304 | 0.10678 | 9775 ft | 293 kts | 262° |
| 2026-04-29 13:27 | 51.64145 | 0.07416 | 9572 ft | 289 kts | 265° |
| 2026-04-29 13:27 | 51.64070 | 0.04221 | 9438 ft | 282 kts | 266° |
| 2026-04-29 13:27 | 51.64018 | 0.01074 | 9306 ft | 280 kts | 266° |
| 2026-04-29 13:28 | 51.63963 | -0.02034 | 9402 ft | 277 kts | 266° |
| 2026-04-29 13:28 | 51.63917 | -0.05154 | 9113 ft | 278 kts | 266° |
| 2026-04-29 13:28 | 51.63870 | -0.08220 | 8848 ft | 277 kts | 266° |
| 2026-04-29 13:28 | 51.63820 | -0.11322 | 8582 ft | 276 kts | 266° |
| 2026-04-29 13:29 | 51.63768 | -0.14413 | 8445 ft | 275 kts | 266° |
| 2026-04-29 13:29 | 51.63717 | -0.17510 | 8459 ft | 276 kts | 266° |
| 2026-04-29 13:29 | 51.63667 | -0.20586 | 8462 ft | 275 kts | 266° |
| 2026-04-29 13:29 | 51.63617 | -0.23686 | 8465 ft | 277 kts | 266° |
| 2026-04-29 13:30 | 51.63566 | -0.26740 | 8463 ft | 276 kts | 266° |
| 2026-04-29 13:30 | 51.63511 | -0.29845 | 8464 ft | 277 kts | 266° |
| 2026-04-29 13:30 | 51.63461 | -0.32959 | 8464 ft | 278 kts | 266° |
| 2026-04-29 13:30 | 51.63413 | -0.36068 | 8274 ft | 277 kts | 266° |
| 2026-04-29 13:31 | 51.63362 | -0.39160 | 8272 ft | 276 kts | 266° |
| 2026-04-29 13:31 | 51.63307 | -0.42220 | 8274 ft | 276 kts | 266° |
| 2026-04-29 13:31 | 51.63252 | -0.45309 | 8036 ft | 275 kts | 266° |
| 2026-04-29 13:31 | 51.63197 | -0.48382 | 7732 ft | 274 kts | 266° |
| 2026-04-29 13:32 | 51.63139 | -0.51406 | 7446 ft | 274 kts | 266° |
| 2026-04-29 13:32 | 51.63076 | -0.54485 | 7196 ft | 273 kts | 266° |
| 2026-04-29 13:32 | 51.63009 | -0.57533 | 6918 ft | 273 kts | 266° |
| 2026-04-29 13:32 | 51.62938 | -0.60586 | 6663 ft | 271 kts | 266° |
| 2026-04-29 13:33 | 51.62865 | -0.63618 | 6365 ft | 271 kts | 266° |
| 2026-04-29 13:33 | 51.62792 | -0.66683 | 5830 ft | 280 kts | 266° |
| 2026-04-29 13:33 | 51.62712 | -0.69840 | 5266 ft | 281 kts | 266° |
| 2026-04-29 13:33 | 51.62633 | -0.72968 | 5030 ft | 277 kts | 266° |
| 2026-04-29 13:34 | 51.62557 | -0.76029 | 5008 ft | 271 kts | 266° |
| 2026-04-29 13:34 | 51.62484 | -0.79020 | 5001 ft | 271 kts | 266° |
| 2026-04-29 13:34 | 51.62399 | -0.82049 | 5006 ft | 269 kts | 262° |
| 2026-04-29 13:34 | 51.62046 | -0.84917 | 5001 ft | 252 kts | 252° |
| 2026-04-29 13:35 | 51.61618 | -0.87561 | 4990 ft | 236 kts | 251° |
| 2026-04-29 13:35 | 51.61211 | -0.90063 | 4999 ft | 228 kts | 251° |
| 2026-04-29 13:35 | 51.60815 | -0.92490 | 5001 ft | 226 kts | 251° |
| 2026-04-29 13:35 | 51.60413 | -0.94955 | 5012 ft | 226 kts | 251° |
| 2026-04-29 13:36 | 51.60015 | -0.97397 | 5011 ft | 225 kts | 251° |
| 2026-04-29 13:36 | 51.59614 | -0.99826 | 5009 ft | 224 kts | 246° |
| 2026-04-29 13:36 | 51.58824 | -1.01873 | 4682 ft | 216 kts | 211° |
| 2026-04-29 13:36 | 51.57539 | -1.02882 | 4296 ft | 202 kts | 186° |
| 2026-04-29 13:37 | 51.56186 | -1.03387 | 4026 ft | 195 kts | 181° |
| 2026-04-29 13:37 | 51.54861 | -1.03819 | 4013 ft | 193 kts | 180° |
| 2026-04-29 13:37 | 51.53545 | -1.04216 | 3984 ft | 191 kts | 180° |
| 2026-04-29 13:37 | 51.52247 | -1.04591 | 3772 ft | 191 kts | 179° |
| 2026-04-29 13:38 | 51.50917 | -1.04999 | 3519 ft | 194 kts | 181° |
| 2026-04-29 13:38 | 51.49588 | -1.05408 | 3185 ft | 199 kts | 182° |
| 2026-04-29 13:38 | 51.48229 | -1.05623 | 2998 ft | 187 kts | 159° |
| 2026-04-29 13:38 | 51.47192 | -1.04701 | 3003 ft | 163 kts | 115° |
| 2026-04-29 13:39 | 51.47068 | -1.03030 | 3008 ft | 155 kts | 71° |
| 2026-04-29 13:39 | 51.47437 | -1.01395 | 2994 ft | 156 kts | 86° |
| 2026-04-29 13:39 | 51.47388 | -0.99652 | 3007 ft | 157 kts | 88° |
| 2026-04-29 13:39 | 51.47422 | -0.97898 | 3009 ft | 157 kts | 87° |
| 2026-04-29 13:40 | 51.47448 | -0.96162 | 3006 ft | 156 kts | 88° |
| 2026-04-29 13:40 | 51.47467 | -0.94433 | 3000 ft | 158 kts | 88° |
| 2026-04-29 13:40 | 51.47483 | -0.92670 | 2991 ft | 157 kts | 88° |
| 2026-04-29 13:40 | 51.47498 | -0.90923 | 2992 ft | 156 kts | 88° |
| 2026-04-29 13:41 | 51.47511 | -0.89176 | 2996 ft | 157 kts | 88° |
| 2026-04-29 13:41 | 51.47525 | -0.87426 | 2996 ft | 157 kts | 88° |
| 2026-04-29 13:41 | 51.47537 | -0.85681 | 2996 ft | 156 kts | 88° |
| 2026-04-29 13:41 | 51.47550 | -0.83936 | 2997 ft | 156 kts | 88° |
| 2026-04-29 13:42 | 51.47562 | -0.82195 | 2995 ft | 156 kts | 88° |
| 2026-04-29 13:42 | 51.47573 | -0.80546 | 3001 ft | 143 kts | 88° |
| 2026-04-29 13:42 | 51.47584 | -0.78977 | 3001 ft | 138 kts | 88° |
| 2026-04-29 13:42 | 51.47594 | -0.77445 | 3001 ft | 136 kts | 88° |
| 2026-04-29 13:43 | 51.47604 | -0.75932 | 3004 ft | 135 kts | 88° |
| 2026-04-29 13:43 | 51.47613 | -0.74452 | 3004 ft | 134 kts | 88° |
| 2026-04-29 13:43 | 51.47623 | -0.72957 | 2987 ft | 134 kts | 88° |
| 2026-04-29 13:43 | 51.47632 | -0.71455 | 2883 ft | 135 kts | 89° |
| 2026-04-29 13:44 | 51.47641 | -0.69948 | 2744 ft | 134 kts | 89° |
| 2026-04-29 13:44 | 51.47650 | -0.68449 | 2570 ft | 134 kts | 88° |
| 2026-04-29 13:44 | 51.47658 | -0.66956 | 2394 ft | 134 kts | 88° |